createdAt,value
2022-10-11T00:00:09.083Z,32.33
2022-10-11T00:02:52.683Z,31.73
2022-10-11T00:05:23.239Z,32.70
2022-10-11T00:08:06.323Z,31.88
2022-10-11T00:10:35.257Z,32.25
2022-10-11T00:13:02.281Z,32.75
2022-10-11T00:15:30.228Z,32.40
2022-10-11T00:18:05.284Z,32.13
2022-10-11T00:20:32.602Z,33.80
2022-10-11T00:23:01.894Z,34.65
2022-10-11T00:25:29.231Z,33.22
2022-10-11T00:27:56.158Z,33.35
2022-10-11T00:30:23.151Z,33.28
2022-10-11T00:32:59.257Z,33.80
2022-10-11T00:35:29.787Z,34.85
2022-10-11T00:38:04.060Z,34.33
2022-10-11T00:40:33.596Z,34.67
2022-10-11T00:43:01.904Z,33.17
2022-10-11T00:45:32.268Z,32.70
2022-10-11T00:48:10.865Z,33.72
2022-10-11T00:50:38.708Z,33.58
2022-10-11T00:53:11.440Z,34.95
2022-10-11T00:55:59.662Z,33.40
2022-10-11T00:58:30.017Z,33.63
2022-10-11T01:01:00.354Z,33.83
2022-10-11T01:03:30.854Z,33.88
2022-10-11T01:05:58.229Z,32.97
2022-10-11T01:08:26.189Z,34.08
2022-10-11T01:10:53.396Z,33.35
2022-10-11T01:13:59.294Z,34.17
2022-10-11T01:16:39.057Z,33.63
2022-10-11T01:19:34.695Z,34.75
2022-10-11T01:22:35.794Z,33.90
2022-10-11T01:25:18.087Z,33.55
2022-10-11T01:28:10.435Z,35.03
2022-10-11T01:30:41.529Z,33.05
2022-10-11T01:33:38.552Z,35.08
2022-10-11T01:36:32.122Z,34.83
2022-10-11T01:39:04.201Z,34.70
2022-10-11T01:41:43.019Z,33.78
2022-10-11T01:44:11.805Z,31.17
2022-10-11T01:46:39.437Z,31.60
2022-10-11T01:49:07.080Z,34.47
2022-10-11T01:51:48.987Z,37.25
2022-10-11T01:55:07.613Z,37.47
2022-10-11T01:57:50.494Z,37.60
2022-10-11T02:00:41.421Z,36.75
2022-10-11T02:03:22.714Z,37.95
2022-10-11T02:06:03.173Z,37.65
2022-10-11T02:08:53.184Z,33.97
2022-10-11T02:11:30.729Z,33.70
2022-10-11T02:14:01.048Z,34.17
2022-10-11T02:16:33.177Z,33.75
2022-10-11T02:19:08.106Z,34.72
2022-10-11T02:21:36.876Z,34.42
2022-10-11T02:24:12.591Z,33.78
2022-10-11T02:26:43.145Z,34.90
2022-10-11T02:29:12.330Z,34.20
2022-10-11T02:31:39.922Z,33.78
2022-10-11T02:34:24.825Z,35.85
2022-10-11T02:37:10.991Z,33.88
2022-10-11T02:39:49.196Z,35.47
2022-10-11T02:42:27.099Z,33.90
2022-10-11T02:45:01.453Z,34.33
2022-10-11T02:47:30.183Z,35.58
2022-10-11T02:49:58.902Z,35.47
2022-10-11T02:52:26.588Z,34.28
2022-10-11T02:55:06.451Z,34.45
2022-10-11T02:57:33.797Z,34.60
2022-10-11T03:00:01.377Z,36.08
2022-10-11T03:02:28.252Z,35.65
2022-10-11T03:04:55.492Z,35.65
2022-10-11T03:07:22.439Z,35.95
2022-10-11T03:09:49.431Z,36.13
2022-10-11T03:12:16.589Z,36.97
2022-10-11T03:14:43.660Z,36.10
2022-10-11T03:17:34.517Z,36.83
2022-10-11T03:19:58.002Z,35.60
2022-10-11T03:22:35.648Z,37.40
2022-10-11T03:25:09.445Z,36.65
2022-10-11T03:27:36.603Z,37.15
2022-10-11T03:30:04.470Z,36.97
2022-10-11T03:32:31.679Z,36.60
2022-10-11T03:34:58.915Z,38.80
2022-10-11T03:37:26.119Z,37.50
2022-10-11T03:39:53.333Z,38.67
2022-10-11T03:42:20.429Z,38.00
2022-10-11T03:44:52.093Z,38.92
2022-10-11T03:47:19.730Z,37.90
2022-10-11T03:49:46.856Z,37.38
2022-10-11T03:52:16.513Z,35.80
2022-10-11T03:54:43.586Z,36.30
2022-10-11T03:57:11.623Z,36.22
2022-10-11T03:59:38.860Z,38.67
2022-10-11T04:02:05.847Z,37.45
2022-10-11T04:04:33.382Z,39.78
2022-10-11T04:07:00.503Z,40.33
2022-10-11T04:09:27.724Z,40.35
2022-10-11T04:11:54.643Z,38.95
2022-10-11T04:14:25.071Z,39.05
2022-10-11T04:16:52.152Z,38.17
2022-10-11T04:19:19.284Z,39.03
2022-10-11T04:21:46.376Z,37.50
2022-10-11T04:24:13.344Z,37.55
2022-10-11T04:26:40.263Z,37.28
2022-10-11T04:29:14.328Z,37.80
2022-10-11T04:31:41.798Z,40.20
2022-10-11T04:34:08.937Z,40.75
2022-10-11T04:36:36.061Z,38.53
2022-10-11T04:39:03.404Z,39.40
2022-10-11T04:42:08.137Z,38.58
2022-10-11T04:44:18.706Z,38.30
2022-10-11T04:46:45.887Z,38.88
2022-10-11T04:49:12.821Z,38.85
2022-10-11T04:51:40.101Z,38.33
2022-10-11T04:54:07.194Z,39.10
2022-10-11T04:56:44.554Z,40.97
2022-10-11T04:59:11.947Z,41.63
2022-10-11T05:01:39.486Z,41.25
2022-10-11T05:04:06.821Z,39.42
2022-10-11T05:06:33.728Z,39.78
2022-10-11T05:09:00.711Z,39.50
2022-10-11T05:11:27.895Z,36.40
2022-10-11T05:14:00.809Z,37.78
2022-10-11T05:16:28.317Z,37.92
2022-10-11T05:18:55.395Z,40.38
2022-10-11T05:21:27.647Z,37.45
2022-10-11T05:23:59.075Z,39.05
2022-10-11T05:26:28.020Z,38.13
2022-10-11T05:28:55.552Z,38.33
2022-10-11T05:31:23.291Z,39.53
2022-10-11T05:33:52.014Z,41.90
2022-10-11T05:36:31.587Z,39.85
2022-10-11T05:39:31.035Z,40.38
2022-10-11T05:42:08.918Z,39.90
2022-10-11T05:44:54.546Z,37.40
2022-10-11T05:47:42.960Z,38.70
2022-10-11T05:50:24.386Z,38.75
2022-10-11T05:55:34.373Z,39.13
2022-10-11T05:58:01.885Z,39.05
2022-10-11T06:00:32.714Z,38.85
2022-10-11T06:03:00.564Z,36.20
2022-10-11T06:05:33.869Z,35.70
2022-10-11T06:08:10.090Z,33.90
2022-10-11T06:10:45.080Z,34.38
2022-10-11T06:15:49.317Z,29.77
2022-10-11T06:18:16.773Z,29.20
2022-10-11T06:20:45.638Z,29.02
2022-10-11T06:23:12.980Z,27.48
2022-10-11T06:25:43.855Z,25.77
2022-10-11T06:28:52.562Z,24.58
2022-10-11T06:31:36.085Z,25.98
2022-10-11T06:34:45.259Z,24.48
2022-10-11T06:37:22.620Z,24.23
2022-10-11T06:39:50.573Z,24.48
2022-10-11T06:42:17.713Z,26.33
2022-10-11T06:45:03.178Z,26.15
2022-10-11T06:50:59.000Z,26.23
2022-10-11T06:53:31.561Z,26.58
2022-10-11T06:56:06.170Z,27.50
2022-10-11T06:58:59.736Z,27.35
2022-10-11T07:02:09.666Z,26.95
2022-10-11T07:05:29.404Z,26.77
2022-10-11T07:08:42.534Z,26.88
2022-10-11T07:12:00.936Z,28.75
2022-10-11T07:14:28.883Z,26.15
2022-10-11T07:17:04.118Z,28.88
2022-10-11T07:19:34.014Z,28.45
2022-10-11T07:22:01.236Z,29.42
2022-10-11T07:24:42.555Z,28.23
2022-10-11T07:27:19.383Z,29.80
2022-10-11T07:30:01.747Z,28.35
2022-10-11T07:33:33.822Z,27.95
2022-10-11T07:36:09.644Z,28.83
2022-10-11T07:38:40.973Z,30.83
2022-10-11T07:41:09.498Z,29.25
2022-10-11T07:43:37.718Z,26.83
2022-10-11T07:46:06.304Z,28.77
2022-10-11T07:48:34.911Z,29.90
2022-10-11T07:51:04.046Z,29.25
2022-10-11T07:53:31.033Z,30.33
2022-10-11T07:56:02.332Z,27.55
2022-10-11T07:58:30.116Z,28.33
2022-10-11T08:00:57.477Z,27.95
2022-10-11T08:03:24.550Z,25.13
2022-10-11T08:05:52.643Z,25.83
2022-10-11T08:08:19.955Z,24.80
2022-10-11T08:10:52.770Z,24.67
2022-10-11T08:13:20.184Z,24.50
2022-10-11T08:15:47.905Z,26.55
2022-10-11T08:18:15.288Z,24.42
2022-10-11T08:20:42.428Z,24.13
2022-10-11T08:23:09.636Z,26.10
2022-10-11T08:25:42.566Z,26.63
2022-10-11T08:28:10.639Z,24.08
2022-10-11T08:30:38.241Z,26.13
2022-10-11T08:33:08.591Z,26.23
2022-10-11T08:35:36.358Z,27.40
2022-10-11T08:38:03.613Z,32.53
2022-10-11T08:40:35.180Z,31.35
2022-10-11T08:43:05.203Z,30.35
2022-10-11T08:45:39.485Z,32.50
2022-10-11T08:48:26.198Z,32.65
2022-10-11T08:50:54.197Z,31.60
2022-10-11T08:53:40.479Z,32.88
2022-10-11T08:56:11.385Z,32.28
2022-10-11T08:59:02.702Z,32.58
2022-10-11T09:01:31.291Z,33.42
2022-10-11T09:04:00.275Z,33.83
2022-10-11T09:06:29.868Z,32.97
2022-10-11T09:09:34.115Z,33.20
2022-10-11T09:12:22.784Z,33.50
2022-10-11T09:15:09.200Z,33.85
2022-10-11T09:18:10.239Z,40.28
2022-10-11T09:20:56.400Z,38.67
2022-10-11T09:23:36.720Z,38.65
2022-10-11T09:26:09.028Z,39.70
2022-10-11T09:29:00.155Z,41.30
2022-10-11T09:31:28.631Z,39.83
2022-10-11T09:33:55.979Z,39.53
2022-10-11T09:36:29.895Z,39.97
2022-10-11T09:39:25.977Z,40.92
2022-10-11T09:41:58.838Z,40.67
2022-10-11T09:44:27.823Z,40.22
2022-10-11T09:46:56.688Z,40.03
2022-10-11T09:49:39.649Z,39.60
2022-10-11T09:52:14.974Z,39.10
2022-10-11T09:54:44.832Z,57.72
2022-10-11T09:57:22.550Z,38.72
2022-10-11T10:00:21.947Z,36.08
2022-10-11T10:02:51.298Z,33.13
2022-10-11T10:05:21.977Z,34.28
2022-10-11T10:08:08.108Z,33.33
2022-10-11T10:10:40.408Z,33.22
2022-10-11T10:13:21.824Z,32.17
2022-10-11T10:15:55.505Z,29.85
2022-10-11T10:18:37.704Z,29.77
2022-10-11T10:21:15.064Z,27.05
2022-10-11T10:23:42.854Z,28.70
2022-10-11T10:26:17.064Z,29.15
2022-10-11T10:29:05.565Z,27.02
2022-10-11T10:32:01.517Z,28.67
2022-10-11T10:34:36.257Z,27.17
2022-10-11T10:37:29.194Z,26.08
2022-10-11T10:40:04.055Z,24.70
2022-10-11T10:42:31.272Z,25.40
2022-10-11T10:44:59.973Z,26.55
2022-10-11T10:47:49.797Z,25.27
2022-10-11T10:50:30.254Z,24.60
2022-10-11T10:53:05.873Z,24.98
2022-10-11T10:55:47.941Z,24.70
2022-10-11T10:58:25.188Z,28.10
2022-10-11T11:00:58.796Z,24.48
2022-10-11T11:03:45.174Z,23.52
2022-10-11T11:06:22.797Z,21.27
2022-10-11T11:09:28.498Z,19.40
2022-10-11T11:12:14.763Z,18.25
2022-10-11T11:14:59.934Z,16.85
2022-10-11T11:17:51.180Z,16.88
2022-10-11T11:20:27.600Z,18.20
2022-10-11T11:23:12.841Z,17.83
2022-10-11T11:26:26.806Z,15.45
2022-10-11T11:33:12.866Z,16.75
2022-10-11T11:36:27.103Z,14.93
2022-10-11T11:39:04.982Z,15.25
2022-10-11T11:41:39.781Z,13.00
2022-10-11T11:44:27.587Z,12.35
2022-10-11T11:47:03.533Z,12.20
2022-10-11T11:49:50.461Z,11.55
2022-10-11T11:52:26.380Z,11.75
2022-10-11T11:55:06.231Z,13.05
2022-10-11T11:58:12.359Z,13.43
2022-10-11T12:09:20.825Z,15.02
2022-10-11T12:16:30.587Z,12.38
2022-10-11T12:19:18.813Z,14.77
2022-10-11T12:23:24.445Z,16.30
2022-10-11T12:29:54.112Z,13.30
2022-10-11T12:36:44.538Z,13.00
2022-10-11T12:40:09.760Z,11.60
2022-10-11T12:42:37.390Z,12.20
2022-10-11T12:45:16.746Z,14.57
2022-10-11T12:48:23.406Z,12.90
2022-10-11T12:51:34.665Z,11.40
2022-10-11T12:54:58.628Z,13.15
2022-10-11T12:58:05.264Z,13.95
2022-10-11T13:01:44.358Z,14.43
2022-10-11T13:04:17.678Z,14.43
2022-10-11T13:06:47.876Z,15.73
2022-10-11T13:09:46.588Z,13.52
2022-10-11T13:12:21.269Z,13.38
2022-10-11T13:14:57.454Z,13.07
2022-10-11T13:17:37.292Z,13.90
2022-10-11T13:20:19.144Z,15.15
2022-10-11T13:22:56.173Z,14.02
2022-10-11T13:25:25.897Z,12.70
2022-10-11T13:27:56.495Z,12.63
2022-10-11T13:30:31.034Z,11.25
2022-10-11T13:32:59.461Z,11.35
2022-10-11T13:35:32.047Z,12.45
2022-10-11T13:38:00.598Z,12.30
2022-10-11T13:40:28.136Z,12.05
2022-10-11T13:42:55.483Z,11.32
2022-10-11T13:45:27.474Z,11.10
2022-10-11T13:47:55.304Z,11.10
2022-10-11T13:50:34.622Z,12.80
2022-10-11T13:53:08.397Z,11.57
2022-10-11T13:58:12.801Z,11.88
2022-10-11T14:00:55.506Z,11.07
2022-10-11T14:03:24.716Z,11.82
2022-10-11T14:05:59.079Z,13.23
2022-10-11T14:08:26.155Z,12.80
2022-10-11T14:10:57.253Z,12.00
2022-10-11T14:13:38.618Z,13.30
2022-10-11T14:16:19.000Z,12.40
2022-10-11T14:19:00.077Z,13.70
2022-10-11T14:21:45.870Z,13.70
2022-10-11T14:24:14.660Z,12.32
2022-10-11T14:26:44.774Z,13.70
2022-10-11T14:29:22.245Z,12.48
2022-10-11T14:31:49.629Z,12.80
2022-10-11T14:34:21.133Z,12.73
2022-10-11T14:36:49.125Z,12.88
2022-10-11T14:39:18.564Z,13.00
2022-10-11T14:41:46.296Z,11.20
2022-10-11T14:44:19.548Z,11.90
2022-10-11T14:46:48.228Z,12.00
2022-10-11T14:49:18.762Z,12.95
2022-10-11T14:51:47.686Z,12.35
2022-10-11T14:54:15.948Z,12.85
2022-10-11T14:56:42.948Z,13.25
2022-10-11T14:59:26.931Z,12.88
2022-10-11T15:01:54.378Z,12.43
2022-10-11T15:04:23.378Z,11.88
2022-10-11T15:06:51.627Z,12.23
2022-10-11T15:09:20.913Z,12.55
2022-10-11T15:11:48.855Z,13.18
2022-10-11T15:14:15.994Z,12.65
2022-10-11T15:16:43.049Z,12.27
2022-10-11T15:19:16.141Z,13.18
2022-10-11T15:21:43.228Z,13.43
2022-10-11T15:24:10.101Z,11.80
2022-10-11T15:26:37.320Z,12.25
2022-10-11T15:29:04.737Z,12.32
2022-10-11T15:31:31.597Z,12.43
2022-10-11T15:33:59.803Z,11.52
2022-10-11T15:36:28.836Z,11.50
2022-10-11T15:38:56.549Z,10.25
2022-10-11T15:41:24.024Z,12.05
2022-10-11T15:43:51.031Z,11.50
2022-10-11T15:46:20.245Z,11.32
2022-10-11T15:48:48.151Z,13.20
2022-10-11T15:51:16.071Z,12.38
2022-10-11T15:53:44.199Z,11.90
2022-10-11T15:56:15.871Z,11.50
2022-10-11T15:58:43.935Z,11.40
2022-10-11T16:01:19.303Z,11.98
2022-10-11T16:03:48.663Z,11.52
2022-10-11T16:06:16.558Z,11.82
2022-10-11T16:08:43.671Z,11.00
2022-10-11T16:11:11.635Z,10.45
2022-10-11T16:13:39.301Z,11.80
2022-10-11T16:16:07.977Z,13.10
2022-10-11T16:18:36.242Z,11.07
2022-10-11T16:21:08.752Z,11.15
2022-10-11T16:23:38.391Z,11.20
2022-10-11T16:26:12.039Z,10.45
2022-10-11T16:28:39.371Z,10.88
2022-10-11T16:31:11.230Z,12.18
2022-10-11T16:33:45.962Z,12.70
2022-10-11T16:36:34.002Z,12.98
2022-10-11T16:39:06.666Z,12.00
2022-10-11T16:41:33.812Z,13.10
2022-10-11T16:44:00.753Z,11.50
2022-10-11T16:46:27.941Z,11.18
2022-10-11T16:49:04.521Z,12.25
2022-10-11T16:51:31.390Z,12.90
2022-10-11T16:53:58.658Z,12.15
2022-10-11T16:56:25.645Z,14.27
2022-10-11T16:58:53.509Z,12.95
2022-10-11T17:01:21.909Z,12.63
2022-10-11T17:03:49.934Z,12.70
2022-10-11T17:06:17.347Z,13.68
2022-10-11T17:08:44.636Z,13.13
2022-10-11T17:11:11.781Z,12.43
2022-10-11T17:13:38.848Z,14.32
2022-10-11T17:16:06.353Z,13.73
2022-10-11T17:18:34.455Z,14.45
2022-10-11T17:21:03.042Z,13.57
2022-10-11T17:23:30.362Z,13.68
2022-10-11T17:25:57.554Z,13.95
2022-10-11T17:28:24.911Z,14.65
2022-10-11T17:30:56.805Z,15.43
2022-10-11T17:33:26.288Z,15.73
2022-10-11T17:35:54.575Z,16.35
2022-10-11T17:38:26.299Z,16.05
2022-10-11T17:41:07.285Z,16.10
2022-10-11T17:43:37.503Z,15.32
2022-10-11T17:49:07.119Z,16.42
2022-10-11T17:51:41.295Z,19.33
2022-10-11T17:54:13.380Z,18.85
2022-10-11T17:56:44.809Z,19.20
2022-10-11T17:59:20.950Z,19.08
2022-10-11T18:01:51.290Z,18.90
2022-10-11T18:04:20.835Z,18.80
2022-10-11T18:06:52.102Z,19.08
2022-10-11T18:13:50.033Z,21.17
2022-10-11T18:17:27.125Z,21.23
2022-10-11T18:20:25.230Z,21.58
2022-10-11T18:23:13.158Z,23.38
2022-10-11T18:27:13.697Z,24.15
2022-10-11T18:31:19.487Z,23.08
2022-10-11T18:34:49.274Z,24.30
2022-10-11T18:38:08.310Z,23.87
2022-10-11T18:40:44.681Z,24.83
2022-10-11T18:44:17.437Z,25.23
2022-10-11T18:47:31.358Z,25.85
2022-10-11T18:49:59.238Z,26.05
2022-10-11T18:52:44.532Z,26.92
2022-10-11T18:55:46.623Z,26.83
2022-10-11T18:58:14.676Z,26.50
2022-10-11T19:00:41.883Z,26.10
2022-10-11T19:03:12.261Z,25.65
2022-10-11T19:06:28.790Z,27.48
2022-10-11T19:09:04.707Z,27.30
2022-10-11T19:11:32.349Z,25.25
2022-10-11T19:14:17.917Z,25.98
2022-10-11T19:20:49.125Z,24.42
2022-10-11T19:23:27.056Z,23.38
2022-10-11T19:26:44.245Z,23.13
2022-10-11T19:29:20.695Z,22.55
2022-10-11T19:31:50.522Z,23.73
2022-10-11T19:38:14.185Z,26.73
2022-10-11T19:40:46.069Z,26.50
2022-10-11T19:43:13.154Z,26.75
2022-10-11T19:45:48.079Z,26.63
2022-10-11T19:48:15.900Z,25.05
2022-10-11T19:50:44.018Z,24.88
2022-10-11T19:53:11.404Z,25.65
2022-10-11T19:55:46.278Z,25.92
2022-10-11T19:58:13.491Z,26.38
2022-10-11T20:00:43.816Z,25.90
2022-10-11T20:03:20.667Z,25.85
2022-10-11T20:05:47.908Z,25.02
2022-10-11T20:08:18.578Z,25.35
2022-10-11T20:10:45.623Z,25.08
2022-10-11T20:13:12.984Z,25.02
2022-10-11T20:15:40.051Z,27.00
2022-10-11T20:18:09.903Z,27.90
2022-10-11T20:20:36.932Z,26.83
2022-10-11T20:23:04.651Z,26.40
2022-10-11T20:25:34.414Z,26.85
2022-10-11T20:28:01.429Z,26.92
2022-10-11T20:30:31.196Z,26.70
2022-10-11T20:32:58.418Z,26.17
2022-10-11T20:35:26.564Z,27.48
2022-10-11T20:37:54.423Z,27.50
2022-10-11T20:40:22.210Z,28.85
2022-10-11T20:42:51.924Z,27.85
2022-10-11T20:45:19.243Z,28.77
2022-10-11T20:47:46.596Z,28.58
2022-10-11T20:50:13.980Z,32.50
2022-10-11T20:52:47.175Z,31.77
2022-10-11T20:55:16.782Z,28.30
2022-10-11T20:57:44.098Z,29.65
2022-10-11T21:00:49.702Z,30.23
2022-10-11T21:06:36.770Z,30.50
2022-10-11T21:09:04.391Z,30.50
2022-10-11T21:11:33.565Z,31.58
2022-10-11T21:14:39.665Z,33.13
2022-10-11T21:17:09.288Z,32.28
2022-10-11T21:19:39.407Z,30.85
2022-10-11T21:22:06.666Z,29.85
2022-10-11T21:24:59.849Z,30.35
2022-10-11T21:27:31.797Z,31.42
2022-10-11T21:29:59.158Z,37.13
2022-10-11T21:32:26.337Z,30.35
2022-10-11T21:34:53.597Z,31.25
2022-10-11T21:37:21.362Z,29.38
2022-10-11T21:39:48.879Z,29.88
2022-10-11T21:42:16.192Z,30.08
2022-10-11T21:45:04.060Z,29.70
2022-10-11T21:47:31.546Z,30.08
2022-10-11T21:50:00.402Z,31.00
2022-10-11T21:52:30.919Z,29.02
2022-10-11T21:55:10.556Z,31.80
2022-10-11T21:57:37.556Z,31.10
2022-10-11T22:00:06.863Z,31.52
2022-10-11T22:02:42.606Z,30.27
2022-10-11T22:05:10.924Z,29.67
2022-10-11T22:07:40.394Z,30.80
2022-10-11T22:10:07.429Z,30.88
2022-10-11T22:12:34.731Z,31.75
2022-10-11T22:15:01.824Z,32.47
2022-10-11T22:17:29.956Z,31.05
2022-10-11T22:20:02.273Z,34.45
2022-10-11T22:22:39.562Z,33.53
2022-10-11T22:25:08.885Z,33.63
2022-10-11T22:27:35.998Z,34.13
2022-10-11T22:30:03.179Z,34.28
2022-10-11T22:32:32.849Z,33.45
2022-10-11T22:35:02.723Z,33.85
2022-10-11T22:37:29.629Z,34.88
2022-10-11T22:39:57.078Z,34.35
2022-10-11T22:42:27.529Z,34.63
2022-10-11T22:44:57.256Z,34.92
2022-10-11T22:47:27.581Z,35.90
2022-10-11T22:50:12.264Z,35.42
2022-10-11T22:52:59.207Z,36.38
2022-10-11T22:55:36.888Z,35.47
2022-10-11T22:58:28.111Z,35.78
2022-10-11T23:01:39.904Z,36.38
2022-10-11T23:04:22.372Z,37.63
2022-10-11T23:07:04.823Z,37.42
2022-10-11T23:09:35.863Z,38.80
2022-10-11T23:12:08.572Z,36.75
2022-10-11T23:14:35.792Z,35.35
2022-10-11T23:17:02.806Z,35.72
2022-10-11T23:19:30.055Z,36.58
2022-10-11T23:22:11.217Z,35.72
2022-10-11T23:24:38.778Z,35.50
2022-10-11T23:27:09.198Z,34.53
2022-10-11T23:29:53.209Z,35.42
2022-10-11T23:32:20.164Z,33.88
2022-10-11T23:34:47.352Z,33.55
2022-10-11T23:37:17.256Z,32.63
2022-10-11T23:39:53.802Z,33.70
2022-10-11T23:42:24.567Z,33.15
2022-10-11T23:44:59.731Z,33.47
2022-10-11T23:47:28.210Z,35.45
2022-10-11T23:49:59.017Z,35.30
2022-10-11T23:52:26.503Z,35.95
2022-10-11T23:54:53.579Z,36.55
2022-10-11T23:57:20.552Z,38.88
2022-10-11T23:59:49.884Z,41.55
